Time;durP1;ratioP1;P1;durP2;ratioP2;P2;SDS_P1;SDS_P2;PMS_P1;PMS_P2;Temp;Humidity;BMP_temperature;BMP_pressure;BME280_temperature;BME280_humidity;BME280_pressure;Samples;Min_cycle;Max_cycle;Signal;HPM_P1;HPM_P2
2021/07/10 00:00:28;;;;;;;5.30;4.80;;;23.50;99.90;;;;;;5134637;27;20431;-63
2021/07/10 00:02:53;;;;;;;7.60;5.30;;;23.50;99.90;;;;;;5116253;28;20553;-66
2021/07/10 00:05:19;;;;;;;5.63;5.13;;;23.50;99.90;;;;;;5116232;28;20197;-63
2021/07/10 00:07:45;;;;;;;6.23;5.57;;;23.50;99.90;;;;;;5116327;28;20179;-66
2021/07/10 00:10:14;;;;;;;6.47;5.83;;;23.50;99.90;;;;;;5134474;27;20200;-66
2021/07/10 00:12:41;;;;;;;6.03;5.20;;;23.50;99.90;;;;;;5134736;28;20411;-68
2021/07/10 00:15:09;;;;;;;5.77;5.27;;;23.50;99.90;;;;;;5134389;27;20430;-63
2021/07/10 00:17:35;;;;;;;6.97;5.50;;;23.50;99.90;;;;;;5134778;28;20903;-65
2021/07/10 00:20:01;;;;;;;6.67;6.00;;;23.50;99.90;;;;;;5134353;27;20422;-63
2021/07/10 00:22:26;;;;;;;6.07;5.57;;;23.50;99.90;;;;;;5134344;28;20210;-63
2021/07/10 00:24:53;;;;;;;6.87;6.17;;;23.50;99.90;;;;;;5134319;27;20262;-65
2021/07/10 00:27:18;;;;;;;6.87;5.97;;;23.50;99.90;;;;;;5134524;28;20228;-62
2021/07/10 00:29:44;;;;;;;6.40;5.40;;;23.50;99.90;;;;;;5134323;27;20399;-62
2021/07/10 00:32:09;;;;;;;10.50;7.70;;;23.50;99.90;;;;;;5115840;28;20176;-65
2021/07/10 00:34:35;;;;;;;6.30;5.67;;;23.50;99.90;;;;;;5134375;28;20221;-64
2021/07/10 00:37:01;;;;;;;6.07;5.53;;;23.50;99.90;;;;;;5136316;27;20556;-62
2021/07/10 00:39:26;;;;;;;7.10;6.37;;;23.40;99.90;;;;;;5138375;27;20224;-66
2021/07/10 00:41:52;;;;;;;7.40;6.70;;;23.40;99.90;;;;;;5137960;27;20563;-63
2021/07/10 00:44:17;;;;;;;7.50;6.77;;;23.40;99.90;;;;;;5138237;27;20646;-68
2021/07/10 00:46:43;;;;;;;8.77;7.60;;;23.40;99.90;;;;;;5138113;27;20248;-62
2021/07/10 00:49:08;;;;;;;8.23;7.23;;;23.40;99.90;;;;;;5138562;27;20693;-66
2021/07/10 00:51:34;;;;;;;8.50;7.70;;;23.40;99.90;;;;;;5137986;27;20559;-63
2021/07/10 00:54:00;;;;;;;8.53;7.67;;;23.40;99.90;;;;;;5138442;27;20181;-65
2021/07/10 00:56:26;;;;;;;8.67;7.83;;;23.40;99.90;;;;;;5137812;27;20419;-65
2021/07/10 00:58:53;;;;;;;9.20;7.93;;;23.40;99.90;;;;;;5138367;27;20613;-63
2021/07/10 01:01:19;;;;;;;9.60;8.70;;;23.40;99.90;;;;;;5137755;27;20939;-63
2021/07/10 01:03:46;;;;;;;9.77;8.80;;;23.30;99.90;;;;;;5138355;27;20465;-66
2021/07/10 01:06:13;;;;;;;10.87;9.13;;;23.30;99.90;;;;;;5137733;27;20239;-65
2021/07/10 01:08:39;;;;;;;12.03;10.13;;;23.30;99.90;;;;;;5138120;27;20885;-65
2021/07/10 01:11:06;;;;;;;11.87;10.67;;;23.20;99.90;;;;;;5137519;27;20446;-63
2021/07/10 01:13:32;;;;;;;13.83;11.50;;;23.20;99.90;;;;;;5138045;27;20779;-66
2021/07/10 01:15:58;;;;;;;11.83;10.63;;;23.20;99.90;;;;;;5137772;27;20431;-67
2021/07/10 01:18:23;;;;;;;13.80;11.97;;;23.20;99.90;;;;;;5119271;27;20171;-63
2021/07/10 01:20:51;;;;;;;17.40;11.77;;;23.20;99.90;;;;;;5137386;27;20667;-62
2021/07/10 01:23:17;;;;;;;12.10;10.87;;;23.10;99.90;;;;;;5137689;27;20647;-63
2021/07/10 01:25:44;;;;;;;12.17;10.97;;;23.10;99.90;;;;;;5137431;27;20431;-62
2021/07/10 01:28:12;;;;;;;12.63;10.70;;;23.00;99.90;;;;;;5137687;27;20914;-63
2021/07/10 01:30:38;;;;;;;13.20;11.57;;;23.00;99.90;;;;;;5137317;27;20944;-67
2021/07/10 01:33:05;;;;;;;13.27;11.10;;;23.00;99.90;;;;;;5118913;27;20433;-62
2021/07/10 01:35:32;;;;;;;12.77;11.00;;;22.90;99.90;;;;;;5137177;27;20424;-63
2021/07/10 01:37:59;;;;;;;12.53;11.20;;;22.90;99.90;;;;;;5118824;27;20772;-62
2021/07/10 01:40:26;;;;;;;17.33;11.93;;;22.90;99.90;;;;;;5137307;27;20848;-63
2021/07/10 01:42:52;;;;;;;15.47;10.87;;;22.90;99.90;;;;;;5118672;27;20818;-63
2021/07/10 01:45:20;;;;;;;13.20;11.37;;;22.90;99.90;;;;;;5136978;27;20423;-65
2021/07/10 01:47:47;;;;;;;12.97;10.83;;;22.90;99.90;;;;;;5118119;27;20923;-65
2021/07/10 01:50:14;;;;;;;13.30;10.40;;;22.80;99.90;;;;;;5136854;27;20434;-63
2021/07/10 01:52:41;;;;;;;14.70;11.40;;;22.80;99.90;;;;;;5137098;27;20411;-62
2021/07/10 01:55:09;;;;;;;13.33;12.00;;;22.80;99.90;;;;;;5118375;27;20473;-65
2021/07/10 01:57:36;;;;;;;16.20;13.00;;;22.80;99.90;;;;;;5118294;27;20450;-65
2021/07/10 02:00:26;;;;;;;11.70;10.07;;;22.80;99.90;;;;;;5136649;27;20434;-66
2021/07/10 02:02:53;;;;;;;10.80;9.60;;;22.80;99.90;;;;;;5136822;27;20561;-66
2021/07/10 02:05:21;;;;;;;12.43;10.37;;;22.70;99.90;;;;;;5136623;27;20427;-62
2021/07/10 02:07:47;;;;;;;12.93;10.57;;;22.70;99.90;;;;;;5136653;27;20434;-63
2021/07/10 02:10:14;;;;;;;12.37;9.90;;;22.70;99.90;;;;;;5136697;27;20515;-62
2021/07/10 02:12:42;;;;;;;11.80;10.70;;;22.70;99.90;;;;;;5118141;27;20920;-65
2021/07/10 02:15:08;;;;;;;12.90;9.60;;;22.70;99.90;;;;;;5117884;27;20488;-63
2021/07/10 02:17:35;;;;;;;13.97;9.80;;;22.70;99.90;;;;;;5136620;27;20911;-63
2021/07/10 02:20:00;;;;;;;11.60;10.40;;;22.70;99.90;;;;;;5136260;27;20419;-65
2021/07/10 02:22:26;;;;;;;11.73;9.90;;;22.60;99.90;;;;;;5136528;27;20470;-63
2021/07/10 02:24:52;;;;;;;10.13;9.00;;;22.60;99.90;;;;;;5136212;27;20176;-65
2021/07/10 02:27:19;;;;;;;11.63;9.97;;;22.60;99.90;;;;;;5136244;27;20272;-66
2021/07/10 02:29:45;;;;;;;9.47;8.47;;;22.60;99.90;;;;;;5136134;27;20171;-62
2021/07/10 02:32:10;;;;;;;10.17;8.33;;;22.60;99.90;;;;;;5136160;27;20902;-63
2021/07/10 02:34:36;;;;;;;10.27;9.20;;;22.60;99.90;;;;;;5117634;27;20179;-64
2021/07/10 02:37:02;;;;;;;10.93;9.50;;;22.60;99.90;;;;;;5135829;27;20227;-63
2021/07/10 02:39:28;;;;;;;10.40;9.30;;;22.60;99.90;;;;;;5135864;27;20418;-63
2021/07/10 02:41:54;;;;;;;10.03;8.23;;;22.50;99.90;;;;;;5135688;27;20207;-62
2021/07/10 02:44:20;;;;;;;10.60;9.50;;;22.50;99.90;;;;;;5135856;27;20893;-63
2021/07/10 02:46:45;;;;;;;10.80;9.70;;;22.50;99.90;;;;;;5135649;27;20426;-70
2021/07/10 02:49:11;;;;;;;11.77;9.10;;;22.40;99.90;;;;;;5135731;27;20546;-65
2021/07/10 02:51:38;;;;;;;9.40;8.50;;;22.50;99.90;;;;;;5135675;27;20191;-65
2021/07/10 02:54:05;;;;;;;12.97;8.63;;;22.40;99.90;;;;;;5136139;27;20415;-63
2021/07/10 02:56:31;;;;;;;10.40;9.03;;;22.40;99.90;;;;;;5135360;27;20541;-64
2021/07/10 02:58:56;;;;;;;11.13;8.87;;;22.40;99.90;;;;;;5116690;27;20507;-62
2021/07/10 03:01:22;;;;;;;9.97;8.00;;;22.40;99.90;;;;;;5135342;27;20822;-62
2021/07/10 03:03:48;;;;;;;10.83;8.57;;;22.30;99.90;;;;;;5117389;27;20178;-65
2021/07/10 03:06:14;;;;;;;9.70;8.70;;;22.40;99.90;;;;;;5135434;27;20199;-62
2021/07/10 03:08:42;;;;;;;9.60;7.87;;;22.30;99.90;;;;;;5135317;27;20435;-65
2021/07/10 03:11:09;;;;;;;10.90;7.43;;;22.30;99.90;;;;;;5116836;27;20422;-63
2021/07/10 03:13:35;;;;;;;8.23;7.30;;;22.30;99.90;;;;;;5135740;27;20758;-63
2021/07/10 03:16:01;;;;;;;9.50;7.00;;;22.30;99.90;;;;;;5135158;27;20419;-66
2021/07/10 03:18:27;;;;;;;7.97;7.17;;;22.30;99.90;;;;;;5135623;27;20258;-63
2021/07/10 03:20:52;;;;;;;7.57;6.87;;;22.30;99.90;;;;;;5135078;27;20573;-65
2021/07/10 03:23:18;;;;;;;8.60;6.80;;;22.30;99.90;;;;;;5116616;27;20222;-63
2021/07/10 03:25:44;;;;;;;7.33;6.63;;;22.30;99.90;;;;;;5135142;27;20671;-65
2021/07/10 03:28:10;;;;;;;7.80;5.87;;;22.30;99.90;;;;;;5135320;27;20193;-63
2021/07/10 03:30:35;;;;;;;7.23;6.47;;;22.20;99.90;;;;;;5135082;27;20194;-65
2021/07/10 03:33:01;;;;;;;7.03;6.20;;;22.20;99.90;;;;;;5134969;27;20409;-67
2021/07/10 03:35:27;;;;;;;8.40;7.50;;;22.20;99.90;;;;;;5134908;27;20703;-65
2021/07/10 03:37:53;;;;;;;7.27;6.57;;;22.20;99.90;;;;;;5135154;27;20263;-65
2021/07/10 03:40:22;;;;;;;7.77;5.63;;;22.20;99.90;;;;;;5134847;27;20419;-65
2021/07/10 03:42:49;;;;;;;10.17;6.20;;;22.20;99.90;;;;;;5134990;27;20818;-65
2021/07/10 03:45:15;;;;;;;7.43;5.77;;;22.20;99.90;;;;;;5134766;27;20780;-62
2021/07/10 03:47:41;;;;;;;6.37;4.97;;;22.20;99.90;;;;;;5134818;27;20958;-63
2021/07/10 03:50:10;;;;;;;6.20;5.60;;;22.20;99.90;;;;;;5134654;27;20501;-66
2021/07/10 03:52:36;;;;;;;7.73;5.00;;;22.20;99.90;;;;;;5134911;27;20756;-67
2021/07/10 03:55:04;;;;;;;5.90;5.40;;;22.20;99.90;;;;;;5134580;27;20439;-63
2021/07/10 03:57:30;;;;;;;4.90;4.50;;;22.20;99.90;;;;;;5134457;27;20450;-63
2021/07/10 03:59:55;;;;;;;5.27;4.80;;;22.20;99.90;;;;;;5134595;27;20406;-65
2021/07/10 04:02:21;;;;;;;5.63;4.77;;;22.20;99.90;;;;;;5134647;28;20574;-65
2021/07/10 04:04:47;;;;;;;5.27;4.70;;;22.20;99.90;;;;;;5116251;27;20175;-66
2021/07/10 04:07:12;;;;;;;5.10;4.57;;;22.20;99.90;;;;;;5134531;28;20247;-63
2021/07/10 04:09:38;;;;;;;4.30;3.90;;;22.20;99.90;;;;;;5134615;27;20216;-67
2021/07/10 04:12:04;;;;;;;6.90;4.13;;;22.20;99.90;;;;;;5138452;27;20601;-65
2021/07/10 04:14:31;;;;;;;4.57;3.80;;;22.20;99.90;;;;;;5138826;27;20495;-65
2021/07/10 04:16:57;;;;;;;4.67;4.27;;;22.20;99.90;;;;;;5138607;27;20624;-66
2021/07/10 04:19:23;;;;;;;4.57;3.57;;;22.20;99.90;;;;;;5138728;27;20434;-65
2021/07/10 04:21:48;;;;;;;4.20;3.80;;;22.20;99.90;;;;;;5138411;27;20490;-63
2021/07/10 04:24:14;;;;;;;3.97;3.03;;;22.20;99.90;;;;;;5120292;27;20182;-65
2021/07/10 04:26:40;;;;;;;6.07;3.23;;;22.20;99.90;;;;;;5138587;27;20273;-63
2021/07/10 04:29:05;;;;;;;3.20;2.77;;;22.20;99.90;;;;;;5138967;27;20167;-64
2021/07/10 04:31:31;;;;;;;2.70;2.40;;;22.20;99.90;;;;;;5138420;27;20195;-62
2021/07/10 04:33:56;;;;;;;2.90;2.10;;;22.20;99.90;;;;;;5138870;27;20232;-65
2021/07/10 04:36:22;;;;;;;2.67;2.43;;;22.20;99.90;;;;;;5138287;27;20675;-62
2021/07/10 04:38:48;;;;;;;2.00;1.90;;;22.20;99.90;;;;;;5138845;27;20235;-63
2021/07/10 04:41:13;;;;;;;2.20;2.00;;;22.20;99.90;;;;;;5138194;27;20660;-66
2021/07/10 04:43:39;;;;;;;2.33;2.13;;;22.20;99.90;;;;;;5138662;27;20632;-63
2021/07/10 04:46:04;;;;;;;2.00;1.90;;;22.20;99.90;;;;;;5138129;27;20191;-67
2021/07/10 04:48:30;;;;;;;2.40;2.10;;;22.20;99.90;;;;;;5138526;27;20171;-62
2021/07/10 04:50:56;;;;;;;2.33;1.80;;;22.20;99.90;;;;;;5138089;27;20204;-62
2021/07/10 04:53:22;;;;;;;2.97;1.83;;;22.20;99.90;;;;;;5138509;27;20669;-62
2021/07/10 04:55:48;;;;;;;2.00;1.90;;;22.20;99.90;;;;;;5137929;27;20222;-65
2021/07/10 04:58:14;;;;;;;3.47;1.77;;;22.20;99.90;;;;;;5138272;27;20227;-66
2021/07/10 05:00:40;;;;;;;1.57;1.47;;;22.30;99.90;;;;;;5137955;27;20729;-65
2021/07/10 05:03:06;;;;;;;2.60;1.73;;;22.30;99.90;;;;;;5138060;27;20474;-63
2021/07/10 05:05:32;;;;;;;2.10;1.90;;;22.30;99.90;;;;;;5137753;27;20438;-65
2021/07/10 05:07:59;;;;;;;4.00;1.70;;;22.30;99.90;;;;;;5138070;27;20199;-63
2021/07/10 05:10:25;;;;;;;2.30;1.87;;;22.30;99.90;;;;;;5137654;27;20243;-63
2021/07/10 05:12:50;;;;;;;4.00;1.73;;;22.30;99.90;;;;;;5137833;27;20793;-63
2021/07/10 05:15:17;;;;;;;2.70;1.93;;;22.30;99.90;;;;;;5119098;27;20428;-65
2021/07/10 05:17:43;;;;;;;2.17;1.70;;;22.30;99.90;;;;;;5137510;27;20544;-66
2021/07/10 05:20:10;;;;;;;1.57;1.47;;;22.30;99.90;;;;;;5137465;27;20902;-66
2021/07/10 05:22:36;;;;;;;1.77;1.67;;;22.30;99.90;;;;;;5136712;27;20470;-65
2021/07/10 05:25:02;;;;;;;4.43;1.70;;;22.30;99.90;;;;;;5137330;27;20432;-65
2021/07/10 05:27:28;;;;;;;1.50;1.40;;;22.30;99.90;;;;;;5137515;27;20935;-66
2021/07/10 05:29:53;;;;;;;2.30;1.50;;;22.30;99.90;;;;;;5137277;27;20395;-65
2021/07/10 05:32:19;;;;;;;3.93;2.23;;;22.30;99.90;;;;;;5137431;27;20182;-66
2021/07/10 05:34:45;;;;;;;1.63;1.53;;;22.40;99.90;;;;;;5137260;27;20180;-67
2021/07/10 05:37:11;;;;;;;1.60;1.50;;;22.30;99.90;;;;;;5137240;27;20415;-66
2021/07/10 05:39:38;;;;;;;1.53;1.43;;;22.30;99.90;;;;;;5137256;27;20586;-65
2021/07/10 05:42:05;;;;;;;1.63;1.53;;;22.40;99.90;;;;;;5136947;27;21050;-66
2021/07/10 05:44:31;;;;;;;2.03;1.30;;;22.40;99.90;;;;;;5137069;27;20858;-63
2021/07/10 05:46:57;;;;;;;1.80;1.40;;;22.40;99.90;;;;;;5118405;27;20496;-62
2021/07/10 05:49:23;;;;;;;7.03;1.70;;;22.40;99.90;;;;;;5137100;27;20403;-65
2021/07/10 05:51:48;;;;;;;1.40;1.30;;;22.40;99.90;;;;;;5136783;27;20466;-66
2021/07/10 05:54:14;;;;;;;1.70;1.60;;;22.50;99.90;;;;;;5136954;27;20511;-66
2021/07/10 05:56:41;;;;;;;2.40;1.53;;;22.50;99.90;;;;;;5136630;27;20583;-66
2021/07/10 05:59:06;;;;;;;2.87;1.70;;;22.50;99.90;;;;;;5137323;27;20175;-63
2021/07/10 06:01:32;;;;;;;1.67;1.57;;;22.50;99.90;;;;;;5136634;27;20454;-62
2021/07/10 06:03:58;;;;;;;1.60;1.50;;;22.50;99.90;;;;;;5137149;27;20182;-62
2021/07/10 06:06:23;;;;;;;1.57;1.47;;;22.50;99.90;;;;;;5136725;27;20592;-62
2021/07/10 06:08:49;;;;;;;2.83;1.40;;;22.50;99.90;;;;;;5137010;27;20226;-65
2021/07/10 06:11:15;;;;;;;1.80;1.60;;;22.60;99.90;;;;;;5136493;27;20191;-67
2021/07/10 06:13:41;;;;;;;1.30;1.20;;;22.60;99.90;;;;;;5136891;27;20167;-63
2021/07/10 06:16:06;;;;;;;5.07;1.73;;;22.60;99.90;;;;;;5136391;27;20427;-63
2021/07/10 06:18:32;;;;;;;1.40;1.30;;;22.60;99.90;;;;;;5118134;27;20178;-63
2021/07/10 06:20:57;;;;;;;1.30;1.20;;;22.70;99.90;;;;;;5136291;27;20191;-63
2021/07/10 06:23:23;;;;;;;1.27;1.17;;;22.70;99.90;;;;;;5136600;27;20270;-63
2021/07/10 06:25:49;;;;;;;1.50;1.40;;;22.80;99.90;;;;;;5136291;27;20247;-63
2021/07/10 06:28:14;;;;;;;2.80;1.30;;;22.80;99.90;;;;;;5136518;27;20178;-62
2021/07/10 06:30:40;;;;;;;1.10;1.10;;;22.90;99.90;;;;;;5135986;27;20195;-64
2021/07/10 06:33:05;;;;;;;1.50;1.40;;;22.90;99.90;;;;;;5135633;27;20204;-63
2021/07/10 06:35:32;;;;;;;1.50;1.30;;;23.00;99.90;;;;;;5116884;27;20222;-63
2021/07/10 06:37:58;;;;;;;4.87;1.50;;;23.00;99.90;;;;;;5136104;27;20178;-66
2021/07/10 06:40:23;;;;;;;1.77;1.23;;;23.10;99.90;;;;;;5117486;27;20427;-63
2021/07/10 06:42:49;;;;;;;5.80;1.30;;;23.10;99.90;;;;;;5117478;27;20219;-63
2021/07/10 06:45:17;;;;;;;2.77;1.20;;;23.10;99.90;;;;;;5135873;27;20194;-66
2021/07/10 06:47:45;;;;;;;2.63;1.23;;;23.20;99.90;;;;;;5136105;27;20248;-66
2021/07/10 06:50:12;;;;;;;1.40;1.00;;;23.20;99.90;;;;;;5135753;27;20423;-64
2021/07/10 06:52:38;;;;;;;0.93;0.93;;;23.30;99.90;;;;;;5135958;27;20411;-65
2021/07/10 06:55:06;;;;;;;3.73;1.27;;;23.30;99.90;;;;;;5135564;27;20439;-66
2021/07/10 06:57:32;;;;;;;1.77;1.30;;;23.30;99.90;;;;;;5135468;27;20469;-63
2021/07/10 06:59:57;;;;;;;1.67;1.57;;;23.40;99.90;;;;;;5135503;27;20464;-62
2021/07/10 07:02:23;;;;;;;1.20;1.10;;;23.40;99.90;;;;;;5135577;27;20291;-65
2021/07/10 07:04:48;;;;;;;1.57;1.47;;;23.50;99.90;;;;;;5135376;27;20221;-66
2021/07/10 07:07:14;;;;;;;2.53;1.43;;;23.50;99.90;;;;;;5135626;27;20654;-63
2021/07/10 07:09:39;;;;;;;3.50;1.20;;;23.50;99.90;;;;;;5117042;27;20582;-63
2021/07/10 07:12:05;;;;;;;1.27;1.20;;;23.60;99.90;;;;;;5116985;27;20182;-63
2021/07/10 07:14:31;;;;;;;1.17;1.03;;;23.70;99.90;;;;;;5135428;27;20183;-63
2021/07/10 07:16:58;;;;;;;1.47;1.37;;;23.70;99.90;;;;;;5135193;27;20838;-62
2021/07/10 07:19:30;;;;;;;1.90;1.80;;;23.80;99.90;;;;;;5135328;27;20629;-63
2021/07/10 07:21:56;;;;;;;1.60;1.50;;;23.90;99.90;;;;;;5134994;27;20463;-65
2021/07/10 07:24:22;;;;;;;1.73;1.63;;;24.00;99.90;;;;;;5116751;27;20513;-66
2021/07/10 07:26:48;;;;;;;1.67;1.57;;;24.00;99.90;;;;;;5116529;27;20443;-63
2021/07/10 07:29:15;;;;;;;3.27;1.67;;;24.20;99.90;;;;;;5116726;27;20799;-63
2021/07/10 07:31:41;;;;;;;1.90;1.80;;;24.30;99.90;;;;;;5134924;27;20485;-66
2021/07/10 07:34:06;;;;;;;1.70;1.60;;;24.40;99.90;;;;;;5134856;27;20409;-66
2021/07/10 07:36:32;;;;;;;1.97;1.73;;;24.50;99.90;;;;;;5134921;27;20192;-63
2021/07/10 07:38:59;;;;;;;2.27;2.10;;;24.60;99.90;;;;;;5135434;27;20545;-63
2021/07/10 07:41:24;;;;;;;2.23;2.00;;;24.70;99.90;;;;;;5134855;27;20424;-63
2021/07/10 07:43:50;;;;;;;3.10;1.80;;;24.70;99.90;;;;;;5135283;27;20423;-63
2021/07/10 07:46:15;;;;;;;2.33;2.10;;;24.80;99.90;;;;;;5134503;27;20272;-65
2021/07/10 07:48:43;;;;;;;1.80;1.70;;;24.90;99.90;;;;;;5116581;27;20222;-65
2021/07/10 07:51:11;;;;;;;1.80;1.70;;;25.00;99.90;;;;;;5134684;27;20208;-66
2021/07/10 07:53:37;;;;;;;2.83;2.57;;;25.10;99.90;;;;;;5116426;27;20432;-66
2021/07/10 07:56:03;;;;;;;2.43;2.00;;;25.10;99.90;;;;;;5134782;27;20870;-66
2021/07/10 07:58:29;;;;;;;4.63;2.60;;;25.20;99.90;;;;;;5116373;28;20477;-66
2021/07/10 08:00:55;;;;;;;3.47;2.23;;;25.30;99.90;;;;;;5134551;27;20871;-66
2021/07/10 08:03:21;;;;;;;2.50;2.30;;;25.30;99.90;;;;;;5116296;28;20269;-63
2021/07/10 08:05:46;;;;;;;4.03;2.90;;;25.40;99.90;;;;;;5134555;27;20429;-63
2021/07/10 08:08:13;;;;;;;2.70;2.50;;;25.50;99.90;;;;;;5134824;28;20182;-63
2021/07/10 08:10:38;;;;;;;2.70;2.50;;;25.60;99.90;;;;;;5134498;27;20193;-63
2021/07/10 08:13:04;;;;;;;2.77;2.47;;;25.60;99.90;;;;;;5134817;28;20875;-66
2021/07/10 08:15:29;;;;;;;2.40;2.20;;;25.70;99.90;;;;;;5134439;27;20194;-66
2021/07/10 08:17:55;;;;;;;4.20;2.60;;;25.80;99.90;;;;;;5134689;28;20179;-66
2021/07/10 08:20:21;;;;;;;4.63;2.30;;;25.90;99.90;;;;;;5116037;28;20202;-63
2021/07/10 08:22:47;;;;;;;3.50;3.20;;;26.00;99.90;;;;;;5134226;28;20210;-63
2021/07/10 08:25:13;;;;;;;4.13;3.70;;;26.10;99.90;;;;;;5136525;27;20206;-63
2021/07/10 08:27:41;;;;;;;3.00;2.70;;;26.10;99.90;;;;;;5152125;27;20432;-63
2021/07/10 08:30:08;;;;;;;2.90;2.60;;;26.20;99.90;;;;;;5110513;28;20493;-66
2021/07/10 08:32:34;;;;;;;3.20;2.60;;;26.30;99.90;;;;;;5134155;28;20425;-66
2021/07/10 08:34:59;;;;;;;5.27;3.13;;;26.30;99.90;;;;;;5132874;27;20415;-63
2021/07/10 08:37:25;;;;;;;2.40;2.30;;;26.50;99.90;;;;;;5134337;28;20175;-65
2021/07/10 08:39:51;;;;;;;3.30;3.07;;;26.50;99.90;;;;;;5118816;28;20220;-66
2021/07/10 08:42:17;;;;;;;3.00;2.73;;;26.60;99.90;;;;;;5124006;27;20206;-63
2021/07/10 08:44:49;;;;;;;3.20;2.90;;;26.60;99.90;;;;;;5141245;27;20658;-66
2021/07/10 08:47:15;;;;;;;3.10;2.90;;;26.70;99.90;;;;;;5134229;28;20410;-63
2021/07/10 08:49:42;;;;;;;3.77;3.23;;;26.80;99.90;;;;;;5133928;28;20912;-66
2021/07/10 08:52:07;;;;;;;2.90;2.70;;;26.80;99.90;;;;;;5122555;28;20412;-63
2021/07/10 08:54:34;;;;;;;4.47;2.90;;;26.90;99.90;;;;;;5106777;28;20519;-63
2021/07/10 08:57:00;;;;;;;4.33;3.93;;;27.00;99.90;;;;;;5130898;27;20227;-65
2021/07/10 08:59:25;;;;;;;5.80;3.67;;;27.00;99.90;;;;;;5134472;27;20804;-66
2021/07/10 09:01:53;;;;;;;3.33;3.10;;;27.10;99.90;;;;;;5137396;27;20211;-62
2021/07/10 09:04:24;;;;;;;3.93;3.63;;;27.10;99.90;;;;;;5118894;27;20209;-63
2021/07/10 09:06:50;;;;;;;3.50;3.20;;;27.20;99.90;;;;;;5104059;28;20484;-65
2021/07/10 09:09:16;;;;;;;4.70;3.53;;;27.30;99.90;;;;;;5126118;27;20430;-63
2021/07/10 09:11:59;;;;;;;3.73;3.40;;;27.40;99.90;;;;;;5137692;27;20852;-65
2021/07/10 09:14:30;;;;;;;4.43;3.80;;;27.50;99.90;;;;;;5137436;27;20184;-62
2021/07/10 09:17:12;;;;;;;4.40;3.70;;;27.60;99.90;;;;;;5137359;27;20928;-62
2021/07/10 09:19:38;;;;;;;4.50;3.30;;;27.60;99.90;;;;;;5137189;27;20919;-63
2021/07/10 09:22:04;;;;;;;3.90;3.60;;;27.70;99.90;;;;;;5137360;27;22479;-66
2021/07/10 09:24:36;;;;;;;3.83;3.47;;;27.80;99.90;;;;;;5118640;27;20593;-67
2021/07/10 09:27:08;;;;;;;4.10;3.60;;;27.80;99.90;;;;;;5137143;27;20214;-66
2021/07/10 09:29:43;;;;;;;3.67;3.37;;;27.90;99.90;;;;;;5137033;27;20479;-66
2021/07/10 09:32:13;;;;;;;3.27;3.07;;;28.00;99.90;;;;;;5136966;27;20803;-63
2021/07/10 09:34:43;;;;;;;3.30;3.10;;;28.00;99.90;;;;;;5135640;27;20404;-63
2021/07/10 09:37:20;;;;;;;3.37;3.13;;;28.00;99.90;;;;;;5118791;27;20431;-62
2021/07/10 09:39:56;;;;;;;3.50;3.20;;;28.10;99.90;;;;;;5137212;27;20471;-65
2021/07/10 09:42:43;;;;;;;3.67;3.37;;;28.10;99.90;;;;;;5137237;27;20472;-66
2021/07/10 09:45:16;;;;;;;3.70;3.30;;;28.20;99.90;;;;;;5137010;27;20447;-66
2021/07/10 09:47:42;;;;;;;4.43;4.03;;;28.30;99.90;;;;;;5118665;27;20423;-66
2021/07/10 09:50:16;;;;;;;3.90;3.60;;;28.30;99.90;;;;;;5136103;27;20432;-65
2021/07/10 09:52:42;;;;;;;4.40;4.10;;;28.40;99.90;;;;;;5137254;27;20893;-63
2021/07/10 09:55:13;;;;;;;4.77;4.37;;;28.40;99.90;;;;;;5136855;27;20435;-62
2021/07/10 09:57:41;;;;;;;5.30;4.67;;;28.50;99.90;;;;;;5118482;27;20474;-67
2021/07/10 10:00:07;;;;;;;5.30;4.67;;;28.50;99.90;;;;;;5136723;27;20421;-63
2021/07/10 10:02:41;;;;;;;4.47;3.97;;;28.60;99.90;;;;;;5136587;27;20495;-66
2021/07/10 10:05:10;;;;;;;5.07;4.67;;;28.60;99.90;;;;;;5136707;27;20408;-63
2021/07/10 10:07:51;;;;;;;4.47;4.07;;;28.70;99.90;;;;;;5118161;27;20413;-66
2021/07/10 10:10:32;;;;;;;4.37;4.07;;;28.70;99.90;;;;;;5136614;27;20435;-67
2021/07/10 10:13:07;;;;;;;4.53;4.13;;;28.80;99.90;;;;;;5136759;27;20433;-63
2021/07/10 10:15:38;;;;;;;4.57;4.20;;;28.90;99.90;;;;;;5136457;27;20460;-65
2021/07/10 10:18:04;;;;;;;5.27;4.77;;;28.90;99.90;;;;;;5136684;27;20418;-66
2021/07/10 10:20:30;;;;;;;8.17;4.70;;;29.00;99.90;;;;;;5136556;27;20957;-66
2021/07/10 10:22:58;;;;;;;4.53;4.20;;;29.00;99.90;;;;;;5136411;27;20476;-66
2021/07/10 10:25:24;;;;;;;6.50;4.80;;;29.10;99.90;;;;;;5135838;27;20187;-63
2021/07/10 10:27:51;;;;;;;5.30;4.80;;;29.10;99.90;;;;;;5117936;27;20423;-65
2021/07/10 10:30:18;;;;;;;5.13;4.73;;;29.20;99.90;;;;;;5136292;27;20426;-63
2021/07/10 10:32:44;;;;;;;5.33;4.93;;;29.30;99.90;;;;;;5136284;27;20462;-66
2021/07/10 10:35:10;;;;;;;6.00;5.37;;;29.30;99.90;;;;;;5136000;27;20500;-66
2021/07/10 10:37:38;;;;;;;4.87;4.47;;;29.40;99.90;;;;;;5136354;27;20469;-65
2021/07/10 10:40:11;;;;;;;5.63;5.13;;;29.40;99.90;;;;;;5135860;27;20428;-63
2021/07/10 10:42:38;;;;;;;5.07;4.67;;;29.40;99.90;;;;;;5136001;27;20992;-66
2021/07/10 10:45:05;;;;;;;4.80;4.40;;;29.50;99.90;;;;;;5135823;27;20514;-63
2021/07/10 10:47:45;;;;;;;5.23;4.73;;;29.50;99.90;;;;;;5136155;27;20849;-63
2021/07/10 10:50:26;;;;;;;5.20;4.70;;;29.60;99.90;;;;;;5135790;27;20923;-66
2021/07/10 10:52:54;;;;;;;5.47;4.97;;;29.60;99.90;;;;;;5136069;27;20434;-65
2021/07/10 10:55:40;;;;;;;5.30;4.87;;;29.60;99.90;;;;;;5135714;27;20549;-66
2021/07/10 10:58:26;;;;;;;5.73;5.13;;;29.70;99.90;;;;;;5135330;27;20481;-64
2021/07/10 11:01:06;;;;;;;5.70;5.20;;;29.70;99.90;;;;;;5134935;27;20430;-66
2021/07/10 11:03:42;;;;;;;6.00;5.40;;;29.80;99.90;;;;;;5135901;27;20937;-66
2021/07/10 11:06:36;;;;;;;5.63;5.13;;;29.70;99.90;;;;;;5135365;27;20434;-62
2021/07/10 11:09:02;;;;;;;5.50;5.00;;;29.70;99.90;;;;;;5132779;27;20524;-63
2021/07/10 11:11:35;;;;;;;5.30;4.80;;;29.70;99.90;;;;;;5117018;27;20520;-63
2021/07/10 11:14:29;;;;;;;5.97;5.40;;;29.80;99.90;;;;;;5135951;27;20228;-63
2021/07/10 11:17:06;;;;;;;6.63;6.00;;;29.80;99.90;;;;;;5132255;27;20514;-63
2021/07/10 11:19:47;;;;;;;5.93;4.93;;;29.80;99.90;;;;;;5134795;27;20406;-66
2021/07/10 11:22:51;;;;;;;6.30;5.60;;;29.80;99.90;;;;;;5135127;27;20473;-63
2021/07/10 11:25:37;;;;;;;5.70;5.30;;;29.90;99.90;;;;;;5135286;27;20432;-66
2021/07/10 11:28:13;;;;;;;5.60;5.10;;;29.90;99.90;;;;;;5135303;27;20426;-66
2021/07/10 11:30:45;;;;;;;6.23;5.63;;;30.00;99.90;;;;;;5135052;27;20532;-66
2021/07/10 11:33:11;;;;;;;6.00;5.50;;;30.00;99.90;;;;;;5116806;27;20423;-66
2021/07/10 11:35:38;;;;;;;6.10;5.50;;;30.00;99.90;;;;;;5134645;27;20774;-62
2021/07/10 11:38:06;;;;;;;5.63;5.13;;;30.00;99.90;;;;;;5134740;27;20415;-66
2021/07/10 11:40:39;;;;;;;5.87;5.37;;;30.00;99.90;;;;;;5134887;27;20924;-63
2021/07/10 11:43:07;;;;;;;6.97;5.70;;;30.10;99.90;;;;;;5135012;27;20480;-63
2021/07/10 11:45:34;;;;;;;5.30;4.90;;;30.10;99.90;;;;;;5134759;27;20453;-63
2021/07/10 11:48:17;;;;;;;6.17;5.60;;;30.20;99.90;;;;;;5135088;27;20448;-67
2021/07/10 11:50:43;;;;;;;7.03;5.83;;;30.20;99.90;;;;;;5134787;27;20422;-66
2021/07/10 11:53:12;;;;;;;6.23;5.73;;;30.20;99.90;;;;;;5116324;27;20429;-66
2021/07/10 11:55:43;;;;;;;7.47;5.33;;;30.30;99.90;;;;;;5116233;27;20435;-63
2021/07/10 11:58:12;;;;;;;6.67;6.07;;;30.30;99.90;;;;;;5134836;27;20448;-63
2021/07/10 12:00:38;;;;;;;7.00;5.83;;;30.30;99.90;;;;;;5134661;27;20431;-66
2021/07/10 12:03:13;;;;;;;6.03;5.53;;;30.40;99.90;;;;;;5134766;28;20465;-62
2021/07/10 12:05:39;;;;;;;7.90;5.90;;;30.40;99.90;;;;;;5134651;28;20419;-66
2021/07/10 12:08:05;;;;;;;6.43;5.83;;;30.40;99.90;;;;;;5134816;28;20411;-66
2021/07/10 12:10:37;;;;;;;6.00;5.50;;;30.40;99.90;;;;;;5134467;28;20721;-66
2021/07/10 12:13:13;;;;;;;6.60;6.03;;;30.40;99.90;;;;;;5134807;28;20657;-63
2021/07/10 12:15:40;;;;;;;6.53;5.93;;;30.50;99.90;;;;;;5134421;28;20423;-66
2021/07/10 12:18:09;;;;;;;6.57;5.97;;;30.50;99.90;;;;;;5115936;28;20502;-63
2021/07/10 12:20:39;;;;;;;5.80;5.40;;;30.50;99.90;;;;;;5134471;28;20426;-62
2021/07/10 12:23:40;;;;;;;6.00;5.60;;;30.60;99.90;;;;;;5134567;28;20830;-66
2021/07/10 12:26:11;;;;;;;5.93;5.50;;;30.60;99.90;;;;;;5077776;28;20438;-66
2021/07/10 12:28:39;;;;;;;6.43;5.83;;;30.60;99.90;;;;;;5134874;28;20428;-63
2021/07/10 12:31:14;;;;;;;5.70;5.20;;;30.60;99.90;;;;;;5116509;27;20542;-63
2021/07/10 12:33:45;;;;;;;5.13;4.63;;;30.60;99.90;;;;;;5138855;27;20429;-66
2021/07/10 12:36:26;;;;;;;6.23;5.77;;;30.60;99.90;;;;;;5138418;27;20433;-63
2021/07/10 12:38:52;;;;;;;6.00;5.47;;;30.70;99.90;;;;;;5120205;27;20428;-63
2021/07/10 12:41:33;;;;;;;5.73;5.23;;;30.70;99.90;;;;;;5138184;27;20801;-66
2021/07/10 12:44:11;;;;;;;6.40;5.90;;;30.70;99.90;;;;;;5138207;27;20649;-66
2021/07/10 12:47:02;;;;;;;5.47;5.00;;;30.70;99.90;;;;;;5138230;27;20947;-66
2021/07/10 12:49:32;;;;;;;5.53;5.03;;;30.70;99.90;;;;;;5138220;27;20821;-63